createdAt,value
2019-04-11T00:01:35.803Z,98933.74
2019-04-11T00:03:57.715Z,98940.78
2019-04-11T00:06:27.698Z,98937.70
2019-04-11T00:08:58.503Z,98939.17
2019-04-11T00:11:28.292Z,98933.67
2019-04-11T00:13:57.886Z,98932.01
2019-04-11T00:16:27.435Z,98937.58
2019-04-11T00:18:57.023Z,98934.57
2019-04-11T00:21:26.727Z,98929.91
2019-04-11T00:23:56.619Z,98929.49
2019-04-11T00:26:26.484Z,98929.62
2019-04-11T00:28:56.289Z,98932.26
2019-04-11T00:31:26.019Z,98937.28
2019-04-11T00:33:56.335Z,98932.33
2019-04-11T00:36:26.517Z,98929.38
2019-04-11T00:38:57.234Z,98935.66
2019-04-11T00:41:28.108Z,98931.53
2019-04-11T00:43:58.696Z,98932.93
2019-04-11T00:46:28.710Z,98933.63
2019-04-11T00:48:58.325Z,98936.83
2019-04-11T00:51:27.883Z,98936.61
2019-04-11T00:53:58.341Z,98933.23
2019-04-11T00:56:28.385Z,98931.95
2019-04-11T00:58:58.346Z,98937.00
2019-04-11T01:01:28.176Z,98935.81
2019-04-11T01:03:57.792Z,98937.28
2019-04-11T01:06:27.982Z,98937.80
2019-04-11T01:08:57.835Z,98934.31
2019-04-11T01:11:27.857Z,98934.58
2019-04-11T01:13:57.568Z,98931.30
2019-04-11T01:16:55.251Z,98928.36
2019-04-11T01:19:24.965Z,98921.00
2019-04-11T01:21:54.968Z,98926.89
2019-04-11T01:24:25.938Z,98927.72
2019-04-11T01:26:55.769Z,98932.52
2019-04-11T01:29:25.331Z,98932.93
2019-04-11T01:32:00.182Z,98923.63
2019-04-11T01:34:30.774Z,98932.61
2019-04-11T01:37:01.601Z,98929.28
2019-04-11T01:39:41.350Z,98931.20
2019-04-11T01:42:11.173Z,98936.29
2019-04-11T01:44:41.078Z,98933.03
2019-04-11T01:47:13.317Z,98932.03
2019-04-11T01:49:44.069Z,98928.03
2019-04-11T01:52:14.009Z,98923.30
2019-04-11T01:54:43.863Z,98923.09
2019-04-11T01:57:13.883Z,98929.64
2019-04-11T01:59:43.822Z,98927.48
2019-04-11T02:02:35.069Z,98915.32
2019-04-11T02:05:15.275Z,98916.56
2019-04-11T02:07:44.926Z,98918.22
2019-04-11T02:10:14.814Z,98918.93
2019-04-11T02:12:45.568Z,98916.56
2019-04-11T02:15:16.386Z,98916.56
2019-04-11T02:17:46.731Z,98915.44
2019-04-11T02:20:16.695Z,98920.38
2019-04-11T02:22:50.715Z,98913.34
2019-04-11T02:25:34.486Z,98905.48
2019-04-11T02:28:04.494Z,98911.47
2019-04-11T02:30:36.323Z,98915.18
2019-04-11T02:33:07.651Z,98914.62
2019-04-11T02:35:39.944Z,98908.07
2019-04-11T02:38:11.794Z,98911.17
2019-04-11T02:40:41.619Z,98913.35
2019-04-11T02:43:13.264Z,98906.48
2019-04-11T02:45:56.956Z,98900.95
2019-04-11T02:48:16.186Z,98908.39
2019-04-11T02:50:47.631Z,98912.55
2019-04-11T02:53:17.546Z,98906.53
2019-04-11T02:55:47.454Z,98902.63
2019-04-11T02:58:18.538Z,98900.58
2019-04-11T03:00:50.280Z,98898.42
2019-04-11T03:03:20.906Z,98900.30
2019-04-11T03:05:50.899Z,98901.04
2019-04-11T03:08:22.681Z,98901.42
2019-04-11T03:10:53.494Z,98907.75
2019-04-11T03:13:23.470Z,98901.64
2019-04-11T03:16:10.154Z,98902.89
2019-04-11T03:18:45.836Z,98893.69
2019-04-11T03:21:02.817Z,98903.81
2019-04-11T03:23:28.643Z,98895.23
2019-04-11T03:25:58.398Z,98892.55
2019-04-11T03:28:30.786Z,98898.34
2019-04-11T03:31:38.232Z,98899.06
2019-04-11T03:38:55.465Z,98922.20
2019-04-11T03:41:23.479Z,98920.40
2019-04-11T03:43:48.635Z,98916.44
2019-04-11T03:46:25.028Z,98924.88
2019-04-11T03:48:51.192Z,98928.05
2019-04-11T03:51:11.091Z,98931.02
2019-04-11T03:53:43.112Z,98929.03
2019-04-11T03:56:14.033Z,98926.54
2019-04-11T03:58:43.995Z,98924.17
2019-04-11T04:01:16.297Z,98929.16
2019-04-11T04:03:46.757Z,98930.09
2019-04-11T04:06:19.214Z,98929.45
2019-04-11T04:08:50.653Z,98925.42
2019-04-11T04:11:25.264Z,98924.02
2019-04-11T04:14:17.697Z,98926.37
2019-04-11T04:17:03.835Z,98924.66
2019-04-11T04:19:51.711Z,98926.95
2019-04-11T04:22:35.704Z,98927.30
2019-04-11T04:25:05.702Z,98925.48
2019-04-11T04:27:35.399Z,98925.53
2019-04-11T04:30:06.077Z,98928.47
2019-04-11T04:32:36.363Z,98925.42
2019-04-11T04:35:10.414Z,98926.07
2019-04-11T04:37:38.763Z,98929.68
2019-04-11T04:40:23.960Z,98931.27
2019-04-11T04:42:45.707Z,98923.73
2019-04-11T04:45:13.756Z,98927.49
2019-04-11T04:47:51.433Z,98931.10
2019-04-11T04:50:14.155Z,98929.05
2019-04-11T04:52:44.983Z,98933.41
2019-04-11T04:55:14.795Z,98932.83
2019-04-11T04:57:44.960Z,98938.02
2019-04-11T05:00:15.259Z,98931.64
2019-04-11T05:02:44.885Z,98931.23
2019-04-11T05:05:14.591Z,98931.38
2019-04-11T05:07:46.351Z,98933.95
2019-04-11T05:10:15.622Z,98932.71
2019-04-11T05:12:46.111Z,98936.58
2019-04-11T05:15:16.675Z,98932.80
2019-04-11T05:17:46.601Z,98933.55
2019-04-11T05:20:16.379Z,98936.56
2019-04-11T05:22:47.149Z,98935.44
2019-04-11T05:25:18.110Z,98929.76
2019-04-11T05:27:47.875Z,98935.41
2019-04-11T05:30:18.666Z,98932.74
2019-04-11T05:32:49.325Z,98932.61
2019-04-11T05:35:18.971Z,98927.08
2019-04-11T05:37:48.718Z,98934.97
2019-04-11T05:40:18.349Z,98941.42
2019-04-11T05:42:53.413Z,98944.80
2019-04-11T05:45:22.627Z,98943.34
2019-04-11T05:47:54.675Z,98949.68
2019-04-11T05:50:32.010Z,98947.36
2019-04-11T05:53:03.944Z,98950.97
2019-04-11T05:55:36.426Z,98943.06
2019-04-11T05:58:10.695Z,98949.28
2019-04-11T06:00:57.790Z,98947.63
2019-04-11T06:03:28.291Z,98951.38
2019-04-11T06:06:26.720Z,98942.33
2019-04-11T06:09:00.749Z,98946.58
2019-04-11T06:11:52.311Z,98943.20
2019-04-11T06:14:28.559Z,98941.81
2019-04-11T06:17:01.936Z,98937.52
2019-04-11T06:19:42.306Z,98937.05
2019-04-11T06:22:12.798Z,98941.16
2019-04-11T06:25:00.577Z,98938.52
2019-04-11T06:27:49.544Z,98939.34
2019-04-11T06:30:37.294Z,98939.75
2019-04-11T06:33:22.690Z,98941.72
2019-04-11T06:36:14.052Z,98949.97
2019-04-11T06:38:47.285Z,98955.38
2019-04-11T06:41:34.783Z,98951.19
2019-04-11T06:44:26.245Z,98955.45
2019-04-11T06:47:06.512Z,98952.38
2019-04-11T06:49:55.091Z,98959.80
2019-04-11T06:52:26.573Z,98965.20
2019-04-11T06:55:14.894Z,98962.66
2019-04-11T06:57:45.876Z,98970.61
2019-04-11T07:00:16.954Z,98970.48
2019-04-11T07:02:53.251Z,98982.52
2019-04-11T07:05:24.714Z,98980.86
2019-04-11T07:07:55.720Z,98991.30
2019-04-11T07:10:30.880Z,98992.27
2019-04-11T07:13:19.296Z,98992.84
2019-04-11T07:15:52.758Z,98993.30
2019-04-11T07:18:40.100Z,98996.44
2019-04-11T07:21:19.078Z,99000.70
2019-04-11T07:24:07.414Z,99001.14
2019-04-11T07:26:50.241Z,99002.50
2019-04-11T07:29:37.917Z,99004.23
2019-04-11T07:32:22.359Z,98995.75
2019-04-11T07:35:10.855Z,99002.60
2019-04-11T07:37:53.175Z,99004.58
2019-04-11T07:40:41.217Z,99003.47
2019-04-11T07:43:33.534Z,99009.31
2019-04-11T07:46:26.105Z,99012.91
2019-04-11T07:49:08.011Z,99015.88
2019-04-11T07:51:42.866Z,99015.83
2019-04-11T07:54:20.352Z,99011.97
2019-04-11T07:57:14.977Z,99009.16
2019-04-11T08:00:03.868Z,99008.43
2019-04-11T08:03:07.655Z,99009.47
2019-04-11T08:05:54.917Z,99011.31
2019-04-11T08:08:41.663Z,99013.94
2019-04-11T08:11:36.120Z,99013.42
2019-04-11T08:14:18.223Z,99013.25
2019-04-11T08:17:05.753Z,99013.28
2019-04-11T08:19:53.231Z,99017.65
2019-04-11T08:22:36.957Z,99013.84
2019-04-11T08:25:13.987Z,99013.78
2019-04-11T08:27:55.960Z,99019.80
2019-04-11T08:30:20.682Z,99014.19
2019-04-11T08:33:00.907Z,99010.21
2019-04-11T08:35:52.975Z,99003.81
2019-04-11T08:38:26.679Z,99008.78
2019-04-11T08:41:03.455Z,99010.36
2019-04-11T08:43:35.145Z,99003.67
2019-04-11T08:46:08.912Z,99005.02
2019-04-11T08:48:41.165Z,98998.17
2019-04-11T08:51:12.378Z,98990.88
2019-04-11T08:53:55.863Z,98991.55
2019-04-11T08:56:25.568Z,98993.60
2019-04-11T08:59:46.142Z,98995.70
2019-04-11T09:02:27.350Z,98996.95
2019-04-11T09:05:15.700Z,98989.40
2019-04-11T09:08:18.347Z,98991.58
2019-04-11T09:11:12.730Z,98990.36
2019-04-11T09:13:59.846Z,98990.45
2019-04-11T09:17:03.859Z,98989.63
2019-04-11T09:20:11.527Z,98991.80
2019-04-11T09:22:59.528Z,98998.52
2019-04-11T09:25:50.460Z,99002.66
2019-04-11T09:28:19.786Z,98992.41
2019-04-11T09:31:17.150Z,98995.83
2019-04-11T09:34:01.647Z,98994.05
2019-04-11T09:37:03.159Z,98993.70
2019-04-11T09:39:55.226Z,98988.20
2019-04-11T09:42:34.655Z,98991.09
2019-04-11T09:45:23.679Z,98994.78
2019-04-11T09:48:15.029Z,98999.39
2019-04-11T09:51:17.718Z,98998.85
2019-04-11T09:53:52.818Z,99003.58
2019-04-11T09:56:41.320Z,98999.97
2019-04-11T09:59:16.423Z,98997.01
2019-04-11T10:02:10.177Z,98991.23
2019-04-11T10:04:39.870Z,98995.70
2019-04-11T10:07:31.361Z,98990.53
2019-04-11T10:10:18.970Z,98996.35
2019-04-11T10:13:06.817Z,98986.73
2019-04-11T10:15:56.222Z,98989.84
2019-04-11T10:18:55.677Z,98993.13
2019-04-11T10:21:25.924Z,98995.41
2019-04-11T10:24:20.987Z,98992.85
2019-04-11T10:26:58.463Z,98990.77
2019-04-11T10:29:48.137Z,98988.34
2019-04-11T10:32:21.263Z,98987.41
2019-04-11T10:35:10.200Z,98987.23
2019-04-11T10:37:42.200Z,98988.10
2019-04-11T10:40:30.228Z,98988.26
2019-04-11T10:43:01.013Z,98988.70
2019-04-11T10:45:38.569Z,98993.38
2019-04-11T10:48:09.631Z,98991.55
2019-04-11T10:51:08.753Z,98996.42
2019-04-11T10:53:39.439Z,98997.07
2019-04-11T10:56:47.551Z,98992.64
2019-04-11T10:59:17.591Z,98998.59
2019-04-11T11:02:06.650Z,98988.84
2019-04-11T11:04:43.060Z,98992.42
2019-04-11T11:07:21.484Z,98994.30
2019-04-11T11:10:15.641Z,98998.95
2019-04-11T11:13:16.402Z,98998.57
2019-04-11T11:15:52.670Z,99004.51
2019-04-11T11:19:07.523Z,98996.69
2019-04-11T11:21:18.166Z,98988.86
2019-04-11T11:24:07.345Z,98993.73
2019-04-11T11:26:39.048Z,98989.22
2019-04-11T11:29:37.130Z,98993.37
2019-04-11T11:32:21.058Z,98993.83
2019-04-11T11:35:10.724Z,98992.16
2019-04-11T11:38:06.022Z,98993.50
2019-04-11T11:40:54.637Z,98993.42
2019-04-11T11:43:29.283Z,98994.10
2019-04-11T11:46:17.796Z,98992.03
2019-04-11T11:49:12.210Z,98991.11
2019-04-11T11:52:11.114Z,98988.57
2019-04-11T11:54:46.027Z,98982.44
2019-04-11T11:57:21.115Z,98985.52
2019-04-11T11:59:55.067Z,98986.43
2019-04-11T12:02:38.980Z,98986.11
2019-04-11T12:05:34.719Z,98985.91
2019-04-11T12:08:29.063Z,98984.89
2019-04-11T12:11:02.025Z,98989.71
2019-04-11T12:13:51.613Z,98984.82
2019-04-11T12:16:43.869Z,98981.20
2019-04-11T12:19:24.752Z,98981.64
2019-04-11T12:21:55.997Z,98984.42
2019-04-11T12:24:53.642Z,98978.53
2019-04-11T12:27:42.161Z,98980.00
2019-04-11T12:30:48.816Z,98978.45
2019-04-11T12:33:37.431Z,98971.61
2019-04-11T12:36:12.593Z,98972.13
2019-04-11T12:38:54.683Z,98980.16
2019-04-11T12:41:42.264Z,98976.58
2019-04-11T12:44:30.409Z,98979.05
2019-04-11T12:47:11.587Z,98985.53
2019-04-11T12:49:59.091Z,98977.77
2019-04-11T12:52:38.766Z,98981.72
2019-04-11T12:55:10.013Z,98992.27
2019-04-11T12:58:07.015Z,98983.62
2019-04-11T13:00:50.402Z,98985.39
2019-04-11T13:03:51.437Z,98986.92
2019-04-11T13:06:35.155Z,98986.75
2019-04-11T13:09:22.765Z,98983.55
2019-04-11T13:11:52.951Z,98995.13
2019-04-11T13:14:41.337Z,98990.94
2019-04-11T13:17:14.081Z,98989.63
2019-04-11T13:20:11.549Z,98997.00
2019-04-11T13:22:42.184Z,98998.18
2019-04-11T13:25:39.660Z,98996.43
2019-04-11T13:28:09.340Z,98998.97
2019-04-11T13:30:57.673Z,98998.78
2019-04-11T13:33:28.289Z,99000.13
2019-04-11T13:36:12.649Z,99000.13
2019-04-11T13:38:44.128Z,99002.36
2019-04-11T13:41:31.218Z,98999.34
2019-04-11T13:44:15.869Z,99006.84
2019-04-11T13:47:19.519Z,99008.17
2019-04-11T13:49:51.330Z,99014.48
2019-04-11T13:52:45.619Z,99019.30
2019-04-11T13:55:22.735Z,99023.28
2019-04-11T13:58:11.104Z,99011.66
2019-04-11T14:00:48.169Z,99014.84
2019-04-11T14:03:39.188Z,99017.72
2019-04-11T14:06:30.596Z,99011.88
2019-04-11T14:09:24.825Z,99027.63
2019-04-11T14:11:59.056Z,99020.04
2019-04-11T14:14:34.854Z,99021.86
2019-04-11T14:17:12.022Z,99025.84
2019-04-11T14:20:04.146Z,99027.20
2019-04-11T14:22:43.414Z,99026.90
2019-04-11T14:25:28.210Z,99026.90
2019-04-11T14:27:59.792Z,99039.98
2019-04-11T14:30:51.553Z,99037.72
2019-04-11T14:33:18.351Z,99038.55
2019-04-11T14:36:05.650Z,99039.16
2019-04-11T14:38:45.649Z,99042.53
2019-04-11T14:41:25.668Z,99041.95
2019-04-11T14:43:59.291Z,99038.14
2019-04-11T14:47:06.852Z,99041.92
2019-04-11T14:49:40.585Z,99042.50
2019-04-11T14:52:36.310Z,99044.16
2019-04-11T14:55:08.620Z,99047.47
2019-04-11T14:57:46.867Z,99053.85
2019-04-11T15:00:36.973Z,99051.09
2019-04-11T15:03:34.333Z,99050.54
2019-04-11T15:06:32.013Z,99047.71
2019-04-11T15:09:29.693Z,99051.30
2019-04-11T15:12:11.660Z,99050.06
2019-04-11T15:15:00.146Z,99053.61
2019-04-11T15:17:37.390Z,99054.44
2019-04-11T15:20:26.980Z,99059.95
2019-04-11T15:23:06.984Z,99059.07
2019-04-11T15:26:08.804Z,99054.23
2019-04-11T15:28:53.176Z,99049.14
2019-04-11T15:31:39.632Z,99053.61
2019-04-11T15:34:22.599Z,99046.66
2019-04-11T15:37:03.998Z,99044.52
2019-04-11T15:39:58.198Z,99048.05
2019-04-11T15:42:41.101Z,99062.61
2019-04-11T15:45:25.802Z,99068.29
2019-04-11T15:48:11.321Z,99060.09
2019-04-11T15:51:06.574Z,99052.30
2019-04-11T15:53:41.680Z,99049.71
2019-04-11T15:56:42.399Z,99052.52
2019-04-11T15:59:30.912Z,99068.08
2019-04-11T16:02:18.208Z,99069.36
2019-04-11T16:05:02.830Z,99084.09
2019-04-11T16:07:49.956Z,99090.32
2019-04-11T16:10:19.738Z,99081.70
2019-04-11T16:12:56.146Z,99080.17
2019-04-11T16:15:26.013Z,99070.94
2019-04-11T16:18:19.075Z,99063.16
2019-04-11T16:20:51.609Z,99067.31
2019-04-11T16:23:40.213Z,99063.98
2019-04-11T16:26:13.505Z,99072.19
2019-04-11T16:29:00.814Z,99076.44
2019-04-11T16:31:37.822Z,99071.46
2019-04-11T16:34:15.922Z,99071.14
2019-04-11T16:37:04.117Z,99076.02
2019-04-11T16:39:54.716Z,99074.36
2019-04-11T16:42:40.803Z,99072.94
2019-04-11T16:45:38.354Z,99078.13
2019-04-11T16:48:08.082Z,99086.53
2019-04-11T16:50:37.624Z,99089.05
2019-04-11T16:53:10.554Z,99093.09
2019-04-11T16:55:41.959Z,99091.73
2019-04-11T16:58:09.667Z,99096.82
2019-04-11T17:00:39.361Z,99098.89
2019-04-11T17:03:09.068Z,99100.02
2019-04-11T17:05:40.309Z,99107.20
2019-04-11T17:08:27.456Z,99108.55
2019-04-11T17:11:08.622Z,99106.89
2019-04-11T17:13:38.183Z,99110.73
2019-04-11T17:16:10.686Z,99112.28
2019-04-11T17:18:40.348Z,99112.06
2019-04-11T17:21:10.161Z,99121.61
2019-04-11T17:23:39.809Z,99123.38
2019-04-11T17:26:09.456Z,99134.17
2019-04-11T17:28:39.002Z,99136.04
2019-04-11T17:31:08.561Z,99143.92
2019-04-11T17:33:38.100Z,99149.32
2019-04-11T17:36:07.663Z,99149.63
2019-04-11T17:38:37.835Z,99152.33
2019-04-11T17:41:11.110Z,99154.40
2019-04-11T17:43:38.857Z,99157.20
2019-04-11T17:46:08.529Z,99166.84
2019-04-11T17:48:38.071Z,99169.86
2019-04-11T17:51:09.576Z,99166.53
2019-04-11T17:53:38.939Z,99174.51
2019-04-11T17:56:08.472Z,99177.41
2019-04-11T17:58:38.128Z,99177.84
2019-04-11T18:01:07.825Z,99181.45
2019-04-11T18:03:37.363Z,99175.33
2019-04-11T18:06:06.975Z,99186.11
2019-04-11T18:08:36.513Z,99188.92
2019-04-11T18:11:06.230Z,99189.01
2019-04-11T18:13:35.870Z,99193.05
2019-04-11T18:16:05.560Z,99197.30
2019-04-11T18:18:35.846Z,99201.86
2019-04-11T18:21:07.346Z,99205.30
2019-04-11T18:23:36.975Z,99204.27
2019-04-11T18:26:06.641Z,99204.34
2019-04-11T18:28:36.184Z,99213.98
2019-04-11T18:31:05.855Z,99215.05
2019-04-11T18:33:35.408Z,99212.95
2019-04-11T18:36:04.962Z,99216.16
2019-04-11T18:38:34.505Z,99221.47
2019-04-11T18:41:04.495Z,99226.12
2019-04-11T18:43:34.063Z,99221.47
2019-04-11T18:46:03.684Z,99220.52
2019-04-11T18:48:33.254Z,99231.22
2019-04-11T18:51:02.786Z,99222.39
2019-04-11T18:53:32.387Z,99227.06
2019-04-11T18:56:01.954Z,99226.03
2019-04-11T18:58:33.681Z,99231.42
2019-04-11T19:01:03.473Z,99229.36
2019-04-11T19:03:36.433Z,99233.41
2019-04-11T19:06:04.446Z,99238.48
2019-04-11T19:08:34.069Z,99238.48
2019-04-11T19:11:03.717Z,99238.16
2019-04-11T19:13:33.293Z,99235.78
2019-04-11T19:16:02.849Z,99240.73
2019-04-11T19:18:32.377Z,99233.28
2019-04-11T19:21:01.963Z,99238.25
2019-04-11T19:23:31.518Z,99236.89
2019-04-11T19:26:01.060Z,99240.42
2019-04-11T19:28:30.633Z,99244.07
2019-04-11T19:31:00.231Z,99248.11
2019-04-11T19:33:34.030Z,99240.86
2019-04-11T19:36:01.215Z,99241.57
2019-04-11T19:38:33.131Z,99245.62
2019-04-11T19:41:02.692Z,99242.61
2019-04-11T19:43:32.300Z,99243.87
2019-04-11T19:46:01.891Z,99248.42
2019-04-11T19:48:31.526Z,99250.80
2019-04-11T19:51:01.093Z,99251.33
2019-04-11T19:53:32.950Z,99251.05
2019-04-11T19:56:32.942Z,99256.52
2019-04-11T19:59:02.723Z,99259.45
2019-04-11T20:01:32.347Z,99255.72
2019-04-11T20:04:01.929Z,99254.06
2019-04-11T20:06:31.616Z,99254.97
2019-04-11T20:09:01.220Z,99262.03
2019-04-11T20:11:30.775Z,99256.95
2019-04-11T20:14:02.843Z,99264.13
2019-04-11T20:16:41.055Z,99260.08
2019-04-11T20:19:03.008Z,99259.97
2019-04-11T20:21:32.577Z,99257.79
2019-04-11T20:24:02.335Z,99261.72
2019-04-11T20:26:31.988Z,99262.34
2019-04-11T20:29:01.553Z,99261.11
2019-04-11T20:31:31.123Z,99261.95
2019-04-11T20:34:01.702Z,99266.31
2019-04-11T20:36:33.635Z,99258.73
2019-04-11T20:39:05.004Z,99264.24
2019-04-11T20:41:34.608Z,99266.94
2019-04-11T20:44:04.177Z,99264.96
2019-04-11T20:46:33.826Z,99265.68
2019-04-11T20:49:03.403Z,99265.25
2019-04-11T20:51:33.042Z,99265.77
2019-04-11T20:54:06.951Z,99260.08
2019-04-11T20:56:33.862Z,99265.77
2019-04-11T20:59:03.443Z,99258.73
2019-04-11T21:01:33.007Z,99262.55
2019-04-11T21:04:04.696Z,99256.33
2019-04-11T21:06:34.070Z,99258.30
2019-04-11T21:09:05.161Z,99269.00
2019-04-11T21:11:37.139Z,99260.92
2019-04-11T21:14:06.089Z,99265.28
2019-04-11T21:16:35.677Z,99263.93
2019-04-11T21:19:05.284Z,99264.64
2019-04-11T21:21:34.890Z,99261.63
2019-04-11T21:24:04.600Z,99263.30
2019-04-11T21:26:34.304Z,99263.30
2019-04-11T21:29:03.945Z,99268.69
2019-04-11T21:31:33.567Z,99268.69
2019-04-11T21:34:03.112Z,99272.30
2019-04-11T21:36:32.665Z,99266.08
2019-04-11T21:39:03.791Z,99272.94
2019-04-11T21:41:36.063Z,99275.23
2019-04-11T21:44:06.186Z,99266.63
2019-04-11T21:46:38.156Z,99270.16
2019-04-11T21:49:07.640Z,99272.62
2019-04-11T21:51:41.444Z,99273.77
2019-04-11T21:54:08.546Z,99275.23
2019-04-11T21:56:38.193Z,99275.86
2019-04-11T21:59:07.721Z,99272.45
2019-04-11T22:01:37.269Z,99270.78
2019-04-11T22:04:06.845Z,99270.16
2019-04-11T22:06:36.387Z,99266.42
2019-04-11T22:09:06.944Z,99259.68
2019-04-11T22:11:38.422Z,99260.31
2019-04-11T22:14:10.964Z,99268.09
2019-04-11T22:16:39.092Z,99273.16
2019-04-11T22:19:08.658Z,99272.33
2019-04-11T22:21:38.307Z,99279.08
2019-04-11T22:24:07.887Z,99280.62
2019-04-11T22:26:37.582Z,99274.28
2019-04-11T22:29:07.123Z,99283.72
2019-04-11T22:31:36.780Z,99287.57
2019-04-11T22:34:12.000Z,99282.38
2019-04-11T22:36:41.610Z,99282.17
2019-04-11T22:39:11.770Z,99283.72
2019-04-11T22:41:41.352Z,99290.58
2019-04-11T22:44:10.907Z,99287.57
2019-04-11T22:46:40.553Z,99291.81
2019-04-11T22:49:10.207Z,99288.09
2019-04-11T22:51:42.675Z,99290.38
2019-04-11T22:54:13.165Z,99295.14
2019-04-11T22:56:42.535Z,99298.88
2019-04-11T22:59:14.025Z,99302.60
2019-04-11T23:01:46.586Z,99294.31
2019-04-11T23:04:16.628Z,99294.70
2019-04-11T23:06:44.942Z,99295.85
2019-04-11T23:09:16.602Z,99294.50
2019-04-11T23:11:47.184Z,99298.23
2019-04-11T23:14:16.943Z,99305.17
2019-04-11T23:16:46.596Z,99305.61
2019-04-11T23:19:16.164Z,99288.59
2019-04-11T23:21:45.843Z,99288.80
2019-04-11T23:24:15.481Z,99291.89
2019-04-11T23:26:45.175Z,99289.91
2019-04-11T23:29:16.134Z,99293.42
2019-04-11T23:31:46.437Z,99290.81
2019-04-11T23:34:15.993Z,99297.98
2019-04-11T23:36:45.701Z,99294.02
2019-04-11T23:39:15.307Z,99286.24
2019-04-11T23:41:45.023Z,99292.34
2019-04-11T23:44:14.585Z,99295.55
2019-04-11T23:46:44.138Z,99302.41
2019-04-11T23:49:13.736Z,99305.82
2019-04-11T23:51:43.396Z,99298.88
2019-04-11T23:54:22.762Z,99306.25
2019-04-11T23:56:44.283Z,99305.61
2019-04-11T23:59:13.857Z,99307.91
